Time;durP1;ratioP1;P1;durP2;ratioP2;P2;SDS_P1;SDS_P2;PMS_P1;PMS_P2;Temp;Humidity;BMP_temperature;BMP_pressure;BME280_temperature;BME280_humidity;BME280_pressure;Samples;Min_cycle;Max_cycle;Signal;HPM_P1;HPM_P2
2022/03/20 00:01:39;;;;;;;10.97;5.50;;;5.10;99.90;;;;;;6250745;22;20018;-89
2022/03/20 00:04:04;;;;;;;10.77;5.50;;;5.10;99.90;;;;;;6275599;22;20016;-91
2022/03/20 00:06:30;;;;;;;10.57;5.37;;;5.00;99.90;;;;;;6248912;22;20116;-90
2022/03/20 00:08:56;;;;;;;10.50;5.90;;;5.00;99.90;;;;;;6250666;22;20476;-91
2022/03/20 00:11:22;;;;;;;10.85;5.82;;;4.90;99.90;;;;;;6250282;22;20432;-87
2022/03/20 00:13:47;;;;;;;9.90;5.40;;;4.90;99.90;;;;;;6250244;22;20123;-87
2022/03/20 00:16:14;;;;;;;10.57;5.87;;;4.90;99.90;;;;;;6275789;22;20031;-90
2022/03/20 00:18:39;;;;;;;10.93;5.45;;;4.90;99.90;;;;;;6251075;22;20022;-86
2022/03/20 00:21:05;;;;;;;13.27;6.50;;;4.90;99.90;;;;;;6250317;22;20016;-87
2022/03/20 00:23:32;;;;;;;10.48;5.90;;;4.90;99.90;;;;;;6275934;22;20016;-87
2022/03/20 00:25:58;;;;;;;12.45;6.10;;;4.90;99.90;;;;;;6250175;22;20027;-88
2022/03/20 00:28:25;;;;;;;10.20;5.50;;;4.80;99.90;;;;;;6275623;22;20012;-87
2022/03/20 00:30:52;;;;;;;11.43;5.63;;;4.80;99.90;;;;;;6249935;22;20020;-84
2022/03/20 00:33:18;;;;;;;10.40;5.72;;;4.80;99.90;;;;;;6249901;22;20065;-87
2022/03/20 00:35:44;;;;;;;13.63;6.05;;;4.70;99.90;;;;;;6249921;22;20020;-88
2022/03/20 00:38:10;;;;;;;11.73;5.88;;;4.70;99.90;;;;;;6275707;22;20436;-89
2022/03/20 00:40:37;;;;;;;9.77;5.63;;;4.70;99.90;;;;;;6275678;22;20091;-90
2022/03/20 00:43:04;;;;;;;11.48;6.13;;;4.60;99.90;;;;;;6251234;22;20027;-91
2022/03/20 00:45:29;;;;;;;11.43;5.55;;;4.60;99.90;;;;;;6249521;22;20023;-94
2022/03/20 00:47:55;;;;;;;10.10;5.65;;;4.60;99.90;;;;;;6252526;22;20007;-93
2022/03/20 00:50:22;;;;;;;10.23;6.03;;;4.60;99.90;;;;;;6285267;22;20011;-96
2022/03/20 00:52:47;;;;;;;12.48;5.80;;;4.60;99.90;;;;;;6277571;22;20091;-96
2022/03/20 00:55:13;;;;;;;9.83;6.27;;;4.60;99.90;;;;;;6250652;22;20058;-94
2022/03/20 00:57:39;;;;;;;12.20;6.40;;;4.50;99.90;;;;;;6250455;22;20019;-93
2022/03/20 01:00:06;;;;;;;14.63;6.30;;;4.50;99.90;;;;;;6250531;22;20007;-91
2022/03/20 01:02:43;;;;;;;11.50;6.85;;;4.50;99.90;;;;;;6250530;22;20016;-93
2022/03/20 01:05:10;;;;;;;13.80;6.47;;;4.50;99.90;;;;;;6250929;22;20020;-92
2022/03/20 01:07:39;;;;;;;16.38;6.65;;;4.60;99.90;;;;;;6250546;22;20095;-92
2022/03/20 01:12:41;;;;;;;11.48;6.50;;;4.60;99.90;;;;;;6308154;22;20015;-89
2022/03/20 01:15:10;;;;;;;13.02;6.95;;;4.50;99.90;;;;;;6255642;22;20060;-90
2022/03/20 01:17:36;;;;;;;11.25;6.57;;;4.50;99.90;;;;;;6255639;22;20034;-90
2022/03/20 01:20:04;;;;;;;10.20;6.32;;;4.50;99.90;;;;;;6255582;22;20463;-89
2022/03/20 01:22:29;;;;;;;11.07;6.65;;;4.50;99.90;;;;;;6255608;22;20011;-90
2022/03/20 01:24:58;;;;;;;14.83;6.80;;;4.50;99.90;;;;;;6255804;22;20484;-90
2022/03/20 01:27:24;;;;;;;14.23;6.95;;;4.40;99.90;;;;;;6255562;22;20046;-89
2022/03/20 01:29:49;;;;;;;13.50;7.20;;;4.40;99.90;;;;;;6255714;22;20015;-89
2022/03/20 01:32:16;;;;;;;10.83;6.30;;;4.40;99.90;;;;;;6255619;22;20016;-89
2022/03/20 01:34:41;;;;;;;13.07;7.55;;;4.30;99.90;;;;;;6255476;22;20026;-89
2022/03/20 01:37:08;;;;;;;15.00;7.77;;;4.30;99.90;;;;;;6255847;22;20433;-89
2022/03/20 01:39:34;;;;;;;14.40;6.78;;;4.30;99.90;;;;;;6255549;22;20019;-89
2022/03/20 01:42:00;;;;;;;12.40;7.10;;;4.30;99.90;;;;;;6255782;22;20098;-89
2022/03/20 01:44:30;;;;;;;13.37;7.27;;;4.30;99.90;;;;;;6255762;22;20015;-89
2022/03/20 01:46:57;;;;;;;16.58;7.15;;;4.20;99.90;;;;;;6255343;22;20007;-89
2022/03/20 01:49:22;;;;;;;15.97;7.67;;;4.30;99.90;;;;;;6255634;22;20072;-89
2022/03/20 01:54:33;;;;;;;15.02;8.13;;;4.20;99.90;;;;;;6280954;22;20157;-92
2022/03/20 01:56:59;;;;;;;13.55;7.97;;;4.20;99.90;;;;;;6281094;22;20026;-88
2022/03/20 01:59:25;;;;;;;15.30;8.18;;;4.20;99.90;;;;;;6255486;22;20015;-88
2022/03/20 02:09:50;;;;;;;14.50;8.07;;;4.00;99.90;;;;;;6309841;22;20023;-89
2022/03/20 02:12:17;;;;;;;15.73;8.63;;;4.10;99.90;;;;;;6257331;22;20046;-89
2022/03/20 02:14:43;;;;;;;15.88;8.75;;;4.10;99.90;;;;;;6257315;22;20015;-86
2022/03/20 02:17:10;;;;;;;17.00;8.90;;;4.00;99.90;;;;;;6256602;22;20023;-88
2022/03/20 02:19:38;;;;;;;15.27;8.82;;;4.00;99.90;;;;;;6256713;22;20021;-88
2022/03/20 02:24:43;;;;;;;14.27;8.38;;;4.00;99.90;;;;;;6309318;22;20391;-87
2022/03/20 02:27:16;;;;;;;15.18;9.07;;;3.90;99.90;;;;;;6256784;22;20023;-87
2022/03/20 02:29:47;;;;;;;15.07;9.13;;;3.90;99.90;;;;;;6256675;22;20022;-87
2022/03/20 02:32:16;;;;;;;16.70;8.75;;;3.90;99.90;;;;;;6282219;22;20057;-87
2022/03/20 02:34:42;;;;;;;17.67;9.45;;;3.90;99.90;;;;;;6256784;22;20018;-88
2022/03/20 02:37:29;;;;;;;17.90;10.20;;;3.90;99.90;;;;;;6257198;22;20112;-90
2022/03/20 02:40:26;;;;;;;17.00;9.80;;;3.80;99.90;;;;;;6257458;22;20384;-89
2022/03/20 02:43:07;;;;;;;16.25;9.60;;;3.80;99.90;;;;;;6257322;22;20015;-90
2022/03/20 02:45:34;;;;;;;19.20;11.00;;;3.80;99.90;;;;;;6282114;22;20025;-90
2022/03/20 02:48:01;;;;;;;17.98;10.80;;;3.80;99.90;;;;;;6257088;22;20475;-86
2022/03/20 02:50:32;;;;;;;;;;;3.80;99.90;;;;;;6257312;22;20509;-87
2022/03/20 02:53:02;;;;;;;15.25;10.07;;;3.80;99.90;;;;;;6256937;22;19946;-88
2022/03/20 02:55:36;;;;;;;18.95;10.98;;;3.80;99.90;;;;;;6282415;22;20026;-91
2022/03/20 03:00:39;;;;;;;18.25;11.05;;;3.80;99.90;;;;;;6309002;22;20356;-87
2022/03/20 03:03:11;;;;;;;19.60;11.38;;;3.80;99.90;;;;;;6256690;22;20023;-88
2022/03/20 03:05:37;;;;;;;20.15;11.60;;;3.80;99.90;;;;;;6256297;22;20015;-87
2022/03/20 03:12:18;;;;;;;18.60;11.40;;;3.80;99.90;;;;;;6248924;23;20035;-86
2022/03/20 03:17:28;;;;;;;19.05;11.68;;;3.70;99.90;;;;;;6230143;23;20020;-93
2022/03/20 03:19:56;;;;;;;17.88;10.93;;;3.70;99.90;;;;;;6225019;23;20016;-92
2022/03/20 03:22:25;;;;;;;19.75;11.55;;;3.70;99.90;;;;;;6198262;23;20091;-92
2022/03/20 03:24:51;;;;;;;19.13;11.10;;;3.70;99.90;;;;;;6226297;23;20055;-90
2022/03/20 03:27:16;;;;;;;18.60;11.13;;;3.70;99.90;;;;;;6228936;22;20020;-88
2022/03/20 03:29:42;;;;;;;19.15;11.93;;;3.70;99.90;;;;;;6251222;22;20020;-88
2022/03/20 03:32:08;;;;;;;19.33;12.07;;;3.70;99.90;;;;;;6276589;22;20008;-89
2022/03/20 03:37:20;;;;;;;18.40;11.88;;;3.70;99.90;;;;;;6276669;22;21087;-89
2022/03/20 03:39:46;;;;;;;18.63;11.38;;;3.60;99.90;;;;;;6251211;22;20029;-86
2022/03/20 03:42:31;;;;;;;18.17;11.55;;;3.60;99.90;;;;;;6251648;22;20082;-89
2022/03/20 03:45:34;;;;;;;20.08;11.02;;;3.60;99.90;;;;;;6251236;22;20020;-90
2022/03/20 03:48:00;;;;;;;21.50;12.60;;;3.60;99.90;;;;;;6250860;22;20012;-89
2022/03/20 03:50:26;;;;;;;21.27;12.40;;;3.50;99.90;;;;;;6251256;22;20471;-88
2022/03/20 03:52:52;;;;;;;19.83;11.77;;;3.50;99.90;;;;;;6251132;22;20432;-88
2022/03/20 03:55:18;;;;;;;21.60;12.05;;;3.60;99.90;;;;;;6251272;22;20077;-88
2022/03/20 03:57:46;;;;;;;19.57;12.40;;;3.50;99.90;;;;;;6251316;22;20117;-91
2022/03/20 04:02:59;;;;;;;19.70;12.50;;;3.40;99.90;;;;;;6277811;22;20024;-88
2022/03/20 04:05:25;;;;;;;18.67;12.55;;;3.40;99.90;;;;;;6225528;22;20045;-88
2022/03/20 04:07:51;;;;;;;20.48;12.68;;;3.40;99.90;;;;;;6225764;22;20098;-90
2022/03/20 04:10:17;;;;;;;20.37;12.00;;;3.40;99.90;;;;;;6225951;22;20050;-90
2022/03/20 04:12:44;;;;;;;22.53;13.37;;;3.30;99.90;;;;;;6225934;22;20016;-91
2022/03/20 04:15:11;;;;;;;19.08;12.48;;;3.30;99.90;;;;;;6226073;22;20016;-88
2022/03/20 04:17:49;;;;;;;20.00;12.73;;;3.30;99.90;;;;;;6225756;22;20066;-88
2022/03/20 04:20:34;;;;;;;20.52;12.75;;;3.30;99.90;;;;;;6225588;22;20449;-88
2022/03/20 04:25:44;;;;;;;22.05;13.23;;;3.30;99.90;;;;;;6250685;22;20345;-89
2022/03/20 04:28:09;;;;;;;22.90;13.77;;;3.20;99.90;;;;;;6225420;22;20019;-89
2022/03/20 04:30:36;;;;;;;21.47;13.03;;;3.20;99.90;;;;;;6225624;22;20016;-89
2022/03/20 04:33:02;;;;;;;21.15;13.35;;;3.20;99.90;;;;;;6225637;22;20107;-88
2022/03/20 04:38:04;;;;;;;23.42;13.48;;;3.10;99.90;;;;;;6252564;22;20029;-92
2022/03/20 04:40:30;;;;;;;22.40;13.70;;;3.10;99.90;;;;;;6225670;22;20023;-89
2022/03/20 04:42:55;;;;;;;20.30;13.05;;;3.10;99.90;;;;;;6225723;22;20023;-90
2022/03/20 04:46:00;;;;;;;21.17;14.30;;;3.10;99.90;;;;;;6225550;22;20016;-89
2022/03/20 05:00:28;;;;;;;22.05;14.57;;;2.90;99.90;;;;;;6260800;22;20024;-90
2022/03/20 05:02:55;;;;;;;19.88;13.23;;;2.90;99.90;;;;;;6262047;22;20391;-92
2022/03/20 05:07:56;;;;;;;20.85;13.55;;;2.90;99.90;;;;;;6281584;22;20028;-92
2022/03/20 05:13:21;;;;;;;22.73;14.15;;;2.90;99.90;;;;;;6266524;22;20020;-89
2022/03/20 05:18:25;;;;;;;23.27;14.95;;;2.90;99.90;;;;;;6297406;22;20004;-89
2022/03/20 05:20:52;;;;;;;23.23;14.98;;;2.90;99.90;;;;;;6237126;22;20072;-94
2022/03/20 05:23:19;;;;;;;27.33;16.15;;;2.90;99.90;;;;;;6250460;22;20024;-91
2022/03/20 05:25:45;;;;;;;;;;;2.90;99.90;;;;;;6277053;22;20023;-93
2022/03/20 05:28:11;;;;;;;23.13;14.80;;;2.90;99.90;;;;;;6250821;22;20256;-92
2022/03/20 05:30:36;;;;;;;24.08;15.30;;;2.90;99.90;;;;;;6250628;22;20051;-91
2022/03/20 05:33:02;;;;;;;25.30;15.90;;;2.80;99.90;;;;;;6250526;22;20023;-93
2022/03/20 05:35:29;;;;;;;25.40;15.10;;;2.80;99.90;;;;;;6250281;22;20023;-90
2022/03/20 05:37:55;;;;;;;25.52;16.17;;;2.90;99.90;;;;;;6276040;22;20016;-90
2022/03/20 05:40:21;;;;;;;22.00;15.63;;;2.80;99.90;;;;;;6250748;22;20539;-89
2022/03/20 05:42:46;;;;;;;24.58;15.13;;;2.80;99.90;;;;;;6276195;22;20628;-89
2022/03/20 05:45:12;;;;;;;23.88;15.40;;;2.80;99.90;;;;;;6250511;22;20023;-94
2022/03/20 05:47:42;;;;;;;23.80;15.65;;;2.80;99.90;;;;;;6250719;22;20055;-94
2022/03/20 05:50:08;;;;;;;23.20;15.57;;;2.90;99.90;;;;;;6250803;22;20099;-93
2022/03/20 05:52:35;;;;;;;26.58;16.50;;;2.80;99.90;;;;;;6250894;22;20008;-91
2022/03/20 05:55:07;;;;;;;22.95;15.75;;;2.80;99.90;;;;;;6250702;22;20471;-91
2022/03/20 06:00:23;;;;;;;;;;;2.80;99.90;;;;;;6276400;22;20055;-87
2022/03/20 06:02:49;;;;;;;26.10;15.65;;;2.80;99.90;;;;;;6250561;22;19922;-90
2022/03/20 06:05:16;;;;;;;25.17;16.77;;;2.80;99.90;;;;;;6276169;22;20016;-93
2022/03/20 06:07:46;;;;;;;23.30;15.52;;;2.80;99.90;;;;;;6276172;22;20047;-92
2022/03/20 06:10:17;;;;;;;23.00;15.45;;;2.90;99.90;;;;;;6276096;22;20015;-88
2022/03/20 06:12:44;;;;;;;24.77;16.23;;;2.90;99.90;;;;;;6276068;22;20121;-90
2022/03/20 06:15:10;;;;;;;23.77;15.57;;;2.90;99.90;;;;;;6250550;22;20019;-91
2022/03/20 06:17:41;;;;;;;23.42;15.75;;;2.90;99.90;;;;;;6250251;22;20086;-93
2022/03/20 06:20:08;;;;;;;24.50;16.25;;;2.90;99.90;;;;;;6276228;22;20012;-92
2022/03/20 06:22:34;;;;;;;27.75;17.10;;;2.90;99.90;;;;;;6281087;22;20015;-89
2022/03/20 06:25:06;;;;;;;24.25;17.23;;;2.90;99.90;;;;;;6280695;22;20045;-90
2022/03/20 06:27:51;;;;;;;26.08;16.77;;;3.00;99.90;;;;;;6280887;22;20509;-92
2022/03/20 06:30:19;;;;;;;27.42;16.35;;;3.00;99.90;;;;;;6281170;22;20019;-92
2022/03/20 06:32:46;;;;;;;24.63;16.02;;;3.00;99.90;;;;;;6281230;22;20019;-92
2022/03/20 06:35:13;;;;;;;23.85;15.75;;;3.10;99.90;;;;;;6281438;22;20064;-95
2022/03/20 06:37:45;;;;;;;25.15;16.63;;;3.10;99.90;;;;;;6255610;22;20015;-86
2022/03/20 06:40:14;;;;;;;26.73;16.00;;;3.10;99.90;;;;;;6281178;22;20026;-92
2022/03/20 06:42:40;;;;;;;23.88;16.20;;;3.10;99.90;;;;;;6281068;22;20015;-90
2022/03/20 06:45:11;;;;;;;24.40;15.25;;;3.20;99.90;;;;;;6255245;22;20020;-92
2022/03/20 06:47:38;;;;;;;24.33;16.80;;;3.20;99.90;;;;;;6281534;22;20344;-90
2022/03/20 06:50:06;;;;;;;23.48;16.90;;;3.30;99.90;;;;;;6256974;22;20447;-90
2022/03/20 06:52:32;;;;;;;24.00;16.35;;;3.50;99.90;;;;;;6282778;22;20108;-90
2022/03/20 06:55:03;;;;;;;23.33;16.13;;;3.60;99.90;;;;;;6257146;22;20101;-89
2022/03/20 06:57:30;;;;;;;25.17;16.35;;;3.90;99.90;;;;;;6256812;22;20337;-90
2022/03/20 06:59:56;;;;;;;;;;;4.10;99.90;;;;;;6282813;22;20019;-91
2022/03/20 07:02:23;;;;;;;21.63;14.88;;;4.20;99.90;;;;;;6282462;22;19921;-92
2022/03/20 07:05:05;;;;;;;;;;;4.30;99.90;;;;;;6282707;22;20019;-88
2022/03/20 07:07:30;;;;;;;23.63;15.82;;;4.30;99.90;;;;;;6256846;22;20008;-90
2022/03/20 07:09:56;;;;;;;24.02;15.73;;;4.30;99.90;;;;;;6256241;22;20039;-87
2022/03/20 07:12:22;;;;;;;26.43;16.60;;;4.30;99.90;;;;;;6282180;22;20019;-90
2022/03/20 07:14:47;;;;;;;26.98;16.52;;;4.20;99.90;;;;;;6257121;22;20011;-88
2022/03/20 07:17:16;;;;;;;23.20;16.17;;;4.30;99.90;;;;;;6256910;22;20019;-93
2022/03/20 07:19:54;;;;;;;23.38;15.98;;;4.40;99.90;;;;;;6257056;22;20011;-86
2022/03/20 07:29:31;;;;;;;22.55;15.85;;;4.50;99.90;;;;;;6277003;22;20027;-91
2022/03/20 07:31:59;;;;;;;26.08;15.57;;;4.30;99.90;;;;;;6276711;22;20019;-86
2022/03/20 07:34:46;;;;;;;26.63;15.50;;;4.40;99.90;;;;;;6250935;22;20043;-88
2022/03/20 07:37:18;;;;;;;25.85;16.35;;;4.50;99.90;;;;;;6251539;22;20024;-91
2022/03/20 07:39:46;;;;;;;24.60;16.30;;;4.70;99.90;;;;;;6249939;22;20024;-89
2022/03/20 07:42:13;;;;;;;23.05;15.77;;;4.80;99.90;;;;;;6275781;22;20012;-90
2022/03/20 07:44:40;;;;;;;23.27;15.20;;;4.80;99.90;;;;;;6250569;22;20016;-91
2022/03/20 07:47:08;;;;;;;24.67;15.32;;;4.70;99.90;;;;;;6250712;22;20090;-90
2022/03/20 07:49:37;;;;;;;24.52;15.82;;;4.80;99.90;;;;;;6250830;22;20020;-89
2022/03/20 07:52:06;;;;;;;23.73;16.10;;;4.90;99.90;;;;;;6250681;22;20336;-90
2022/03/20 07:54:34;;;;;;;22.75;15.25;;;5.10;99.90;;;;;;6251300;22;20016;-92
2022/03/20 07:57:07;;;;;;;25.77;16.25;;;5.10;99.90;;;;;;6277057;22;20015;-90
2022/03/20 07:59:33;;;;;;;21.13;15.23;;;5.10;99.90;;;;;;6250672;22;20073;-93
2022/03/20 08:01:58;;;;;;;24.00;15.65;;;4.90;99.90;;;;;;6251018;22;20020;-90
2022/03/20 08:04:24;;;;;;;23.10;15.53;;;4.80;99.90;;;;;;6250841;22;20461;-84
2022/03/20 08:06:50;;;;;;;24.60;16.47;;;4.70;99.90;;;;;;6276543;22;20012;-86
2022/03/20 08:09:17;;;;;;;24.35;16.00;;;4.70;99.90;;;;;;6249866;22;20020;-86
2022/03/20 08:11:42;;;;;;;24.25;16.10;;;4.70;99.90;;;;;;6250547;22;20082;-90
2022/03/20 08:14:08;;;;;;;29.60;17.13;;;4.80;99.90;;;;;;6276437;22;20077;-92
2022/03/20 08:16:37;;;;;;;25.23;15.73;;;4.80;99.90;;;;;;6251093;22;20393;-90
2022/03/20 08:19:03;;;;;;;24.40;16.10;;;4.90;99.90;;;;;;6277776;22;20387;-93
2022/03/20 08:21:29;;;;;;;24.88;16.10;;;5.00;99.90;;;;;;6250296;22;20459;-88
2022/03/20 08:23:57;;;;;;;24.57;16.30;;;5.00;99.90;;;;;;6276316;22;20020;-87
2022/03/20 08:26:22;;;;;;;24.35;16.13;;;5.00;99.90;;;;;;6250846;22;20011;-92
2022/03/20 08:28:48;;;;;;;20.85;14.52;;;5.10;99.90;;;;;;6250933;22;20062;-92
2022/03/20 08:31:14;;;;;;;22.13;15.67;;;5.10;99.90;;;;;;6250998;22;20011;-90
2022/03/20 08:33:40;;;;;;;23.30;15.93;;;5.20;99.90;;;;;;6250769;22;20192;-90
2022/03/20 08:36:07;;;;;;;26.43;16.00;;;5.20;99.70;;;;;;6250653;22;20049;-88
2022/03/20 08:38:33;;;;;;;26.15;16.23;;;5.20;99.90;;;;;;6251272;22;20058;-89
2022/03/20 08:41:00;;;;;;;25.77;17.83;;;5.20;99.90;;;;;;6276185;22;20072;-87
2022/03/20 08:43:26;;;;;;;23.52;16.58;;;5.30;99.50;;;;;;6250416;22;20045;-83
2022/03/20 08:45:52;;;;;;;22.95;15.52;;;5.30;99.90;;;;;;6275285;22;20051;-87
2022/03/20 08:48:18;;;;;;;23.38;16.05;;;5.40;99.20;;;;;;6275488;22;20012;-85
2022/03/20 08:50:48;;;;;;;21.40;15.80;;;5.40;99.20;;;;;;6275426;22;20327;-86
2022/03/20 08:53:17;;;;;;;22.90;16.38;;;5.40;98.90;;;;;;6275498;22;20023;-85
2022/03/20 08:55:44;;;;;;;24.73;16.67;;;5.50;99.00;;;;;;6275541;22;20023;-87
2022/03/20 08:58:09;;;;;;;24.35;16.30;;;5.50;98.90;;;;;;6249919;22;20027;-85
2022/03/20 09:00:36;;;;;;;25.33;17.50;;;5.60;98.60;;;;;;6249862;22;20016;-85
2022/03/20 09:03:02;;;;;;;;;;;5.60;98.50;;;;;;6275891;22;20016;-86
2022/03/20 09:05:28;;;;;;;26.05;16.38;;;5.70;98.60;;;;;;6275307;22;20319;-87
2022/03/20 09:07:57;;;;;;;23.83;16.50;;;5.70;97.70;;;;;;6249949;22;20015;-88
2022/03/20 09:10:23;;;;;;;26.33;17.15;;;5.80;97.90;;;;;;6249064;22;20016;-84
2022/03/20 09:12:49;;;;;;;26.15;16.90;;;5.80;97.80;;;;;;6250075;22;20039;-88
2022/03/20 09:15:17;;;;;;;24.70;17.03;;;5.90;97.30;;;;;;6275285;22;20337;-85
2022/03/20 09:20:31;;;;;;;;;;;6.00;97.50;;;;;;6277260;22;20078;-86
2022/03/20 09:22:57;;;;;;;26.00;17.75;;;6.10;97.90;;;;;;6249224;22;19916;-86
2022/03/20 09:25:23;;;;;;;26.27;17.77;;;6.20;96.90;;;;;;6275318;22;20049;-85
2022/03/20 09:27:51;;;;;;;26.70;18.42;;;6.30;97.10;;;;;;6277183;22;20091;-87
2022/03/20 09:30:17;;;;;;;28.63;17.60;;;6.30;96.90;;;;;;6249760;22;20091;-86
2022/03/20 09:32:47;;;;;;;27.80;18.20;;;6.40;96.10;;;;;;6275300;22;20348;-88
2022/03/20 09:35:12;;;;;;;27.17;18.20;;;6.40;95.70;;;;;;6248517;22;20016;-88
2022/03/20 09:37:39;;;;;;;26.97;18.80;;;6.50;95.30;;;;;;6249703;22;20023;-89
2022/03/20 09:40:06;;;;;;;28.13;18.65;;;6.60;94.30;;;;;;6250249;22;20050;-88
2022/03/20 09:42:34;;;;;;;25.63;18.30;;;6.60;93.60;;;;;;6250384;22;20012;-88
2022/03/20 09:45:12;;;;;;;29.58;19.75;;;6.70;94.60;;;;;;6275428;22;20015;-88
2022/03/20 09:47:41;;;;;;;27.13;18.50;;;6.80;94.60;;;;;;6275641;22;20344;-87
2022/03/20 09:50:09;;;;;;;27.90;18.73;;;6.90;94.20;;;;;;6249596;22;20047;-86
2022/03/20 09:52:36;;;;;;;29.23;19.35;;;7.00;94.10;;;;;;6249727;22;20016;-87
2022/03/20 09:55:04;;;;;;;25.30;17.50;;;7.10;94.00;;;;;;6249742;22;20090;-86
2022/03/20 09:57:30;;;;;;;28.58;19.15;;;7.20;92.90;;;;;;6249466;22;20012;-87
2022/03/20 09:59:57;;;;;;;27.92;20.27;;;7.30;91.60;;;;;;6275066;22;20047;-86
2022/03/20 10:02:29;;;;;;;28.05;19.13;;;7.40;91.00;;;;;;6249300;22;20043;-88
2022/03/20 10:05:04;;;;;;;29.50;20.55;;;7.40;90.10;;;;;;6249650;22;20015;-87
2022/03/20 10:07:36;;;;;;;30.48;19.85;;;7.50;90.90;;;;;;6249636;22;20018;-87
2022/03/20 10:10:22;;;;;;;26.33;18.73;;;7.60;91.40;;;;;;6249766;22;20083;-88
2022/03/20 10:12:52;;;;;;;28.60;19.08;;;7.80;90.30;;;;;;6249545;22;20023;-89
2022/03/20 10:15:31;;;;;;;27.70;18.33;;;7.90;90.60;;;;;;6249679;22;20489;-87
2022/03/20 10:18:06;;;;;;;28.33;20.08;;;8.00;90.10;;;;;;6275146;22;20054;-86
2022/03/20 10:21:09;;;;;;;27.08;19.95;;;8.00;88.50;;;;;;6249685;22;20038;-87
2022/03/20 10:23:39;;;;;;;27.30;19.45;;;8.10;88.10;;;;;;6251806;22;20023;-87
2022/03/20 10:26:10;;;;;;;28.05;19.17;;;8.20;87.30;;;;;;6251336;22;20024;-87
2022/03/20 10:28:48;;;;;;;25.80;19.38;;;8.20;86.10;;;;;;6251107;22;20015;-86
2022/03/20 10:31:17;;;;;;;30.17;20.73;;;8.20;85.30;;;;;;6251259;22;20098;-86
2022/03/20 10:33:46;;;;;;;27.73;19.17;;;8.30;84.70;;;;;;6251317;22;20404;-87
2022/03/20 10:36:23;;;;;;;31.15;20.73;;;8.40;84.70;;;;;;6251370;22;20445;-87
2022/03/20 10:38:50;;;;;;;30.63;20.08;;;8.50;85.10;;;;;;6278453;22;20043;-86
2022/03/20 10:41:18;;;;;;;;;;;8.60;85.50;;;;;;6251542;22;20054;-86
2022/03/20 10:43:45;;;;;;;27.52;18.90;;;8.70;84.20;;;;;;6276652;22;20355;-87
2022/03/20 10:46:27;;;;;;;28.23;19.75;;;8.80;83.00;;;;;;6251036;22;20015;-87
2022/03/20 10:48:55;;;;;;;28.25;20.65;;;8.80;78.80;;;;;;6251100;22;20503;-89
2022/03/20 10:51:41;;;;;;;28.25;19.48;;;8.80;78.20;;;;;;6250431;22;20027;-88
2022/03/20 10:54:21;;;;;;;29.42;20.33;;;8.80;78.20;;;;;;6251007;22;20019;-87
2022/03/20 10:56:59;;;;;;;27.58;19.60;;;8.90;79.50;;;;;;6250785;22;20041;-85
2022/03/20 10:59:32;;;;;;;27.75;20.20;;;9.00;78.60;;;;;;6276438;22;20515;-88
2022/03/20 11:02:00;;;;;;;27.35;19.98;;;9.00;76.60;;;;;;6276259;22;20023;-86
2022/03/20 11:04:26;;;;;;;25.80;19.48;;;9.10;77.70;;;;;;6276280;22;20098;-87
2022/03/20 11:07:00;;;;;;;30.90;21.02;;;9.10;76.10;;;;;;6276428;22;20090;-89
2022/03/20 11:09:27;;;;;;;28.75;20.33;;;9.10;76.70;;;;;;6276644;22;20502;-89
2022/03/20 11:11:58;;;;;;;29.30;20.58;;;9.20;74.90;;;;;;6276756;22;20011;-87
2022/03/20 11:14:27;;;;;;;29.35;20.23;;;9.20;74.90;;;;;;6250052;22;20051;-87
2022/03/20 11:17:06;;;;;;;28.38;20.38;;;9.20;75.10;;;;;;6259517;22;20023;-91
2022/03/20 11:19:46;;;;;;;29.15;20.33;;;9.20;73.60;;;;;;6290261;22;20076;-89
2022/03/20 11:22:17;;;;;;;28.40;20.20;;;9.30;74.00;;;;;;6285882;22;20090;-92
2022/03/20 11:24:48;;;;;;;33.85;20.23;;;9.30;73.80;;;;;;6253556;22;20026;-91
2022/03/20 11:27:22;;;;;;;27.50;19.83;;;9.40;72.50;;;;;;6251933;22;20082;-89
2022/03/20 11:29:50;;;;;;;30.63;19.85;;;9.40;72.90;;;;;;6278365;22;20483;-92
2022/03/20 11:32:18;;;;;;;27.13;20.17;;;9.50;72.00;;;;;;6251102;22;20445;-89
2022/03/20 11:34:46;;;;;;;26.90;19.10;;;9.50;72.70;;;;;;6276592;22;20065;-93
2022/03/20 11:37:16;;;;;;;28.65;19.98;;;9.60;71.90;;;;;;6251473;22;20016;-89
2022/03/20 11:40:06;;;;;;;28.17;19.98;;;9.70;71.30;;;;;;6277084;22;20012;-91
2022/03/20 11:42:32;;;;;;;29.20;20.52;;;9.70;70.50;;;;;;6250797;22;20016;-90
2022/03/20 11:45:07;;;;;;;30.10;20.35;;;9.80;70.40;;;;;;6276619;22;20016;-88
2022/03/20 11:47:46;;;;;;;29.42;21.25;;;9.80;70.90;;;;;;6276854;22;20016;-89
2022/03/20 11:50:16;;;;;;;31.10;21.15;;;9.90;69.50;;;;;;6251159;22;20090;-91
2022/03/20 11:53:10;;;;;;;28.60;20.73;;;10.00;69.30;;;;;;6278410;22;20019;-90
2022/03/20 11:55:53;;;;;;;30.55;21.33;;;10.00;70.30;;;;;;6251360;22;20456;-90
2022/03/20 11:58:24;;;;;;;26.83;19.83;;;10.10;69.50;;;;;;6251024;22;20445;-89
2022/03/20 12:01:04;;;;;;;27.88;20.25;;;10.20;68.60;;;;;;6276574;22;20030;-88
2022/03/20 12:04:21;;;;;;;29.67;21.13;;;10.20;68.30;;;;;;6276678;22;20094;-88
2022/03/20 12:07:14;;;;;;;29.50;20.85;;;10.20;68.70;;;;;;6229158;22;20066;-93
2022/03/20 12:09:46;;;;;;;27.33;20.05;;;10.30;68.90;;;;;;6251582;22;20020;-85
2022/03/20 12:12:15;;;;;;;28.58;19.85;;;10.50;69.50;;;;;;6277009;22;20071;-87
2022/03/20 12:14:46;;;;;;;27.27;19.52;;;10.50;68.60;;;;;;6276730;22;20024;-91
2022/03/20 12:17:12;;;;;;;27.10;19.33;;;10.60;68.80;;;;;;6277176;22;20016;-91
2022/03/20 12:19:44;;;;;;;27.77;19.70;;;10.60;68.00;;;;;;6278738;22;20016;-90
2022/03/20 12:22:29;;;;;;;28.58;19.77;;;10.70;67.60;;;;;;6277166;22;20016;-87
2022/03/20 12:25:02;;;;;;;28.15;20.02;;;10.60;66.00;;;;;;6250689;22;20031;-91
2022/03/20 12:27:29;;;;;;;27.40;18.98;;;10.60;65.70;;;;;;6276308;22;20112;-87
2022/03/20 12:30:16;;;;;;;26.38;19.27;;;10.50;66.50;;;;;;6276758;22;20023;-90
2022/03/20 12:32:47;;;;;;;30.98;19.42;;;10.50;66.10;;;;;;6279382;22;20020;-95
2022/03/20 12:35:22;;;;;;;28.92;19.48;;;10.40;66.20;;;;;;6250883;22;20016;-86
2022/03/20 12:37:49;;;;;;;28.17;19.60;;;10.40;66.80;;;;;;6276814;22;20091;-87
2022/03/20 12:43:14;;;;;;;27.15;19.23;;;10.50;67.40;;;;;;6279289;22;20020;-93
2022/03/20 12:45:42;;;;;;;26.38;19.35;;;10.50;68.30;;;;;;6226495;22;20471;-89
2022/03/20 12:48:11;;;;;;;27.38;18.73;;;10.60;67.30;;;;;;6228763;22;20015;-88
2022/03/20 12:50:43;;;;;;;28.52;19.75;;;10.60;66.80;;;;;;6226514;22;20016;-87
2022/03/20 12:53:15;;;;;;;27.48;19.45;;;10.70;66.60;;;;;;6252558;22;20098;-87
2022/03/20 12:55:43;;;;;;;25.63;19.40;;;10.80;66.40;;;;;;6254113;22;20015;-89
2022/03/20 12:58:14;;;;;;;28.90;19.52;;;10.90;66.00;;;;;;6229121;22;20082;-90
2022/03/20 13:00:41;;;;;;;27.83;19.30;;;10.90;66.40;;;;;;6250938;22;20095;-87
2022/03/20 13:03:11;;;;;;;27.80;19.27;;;11.10;65.90;;;;;;6249538;22;20019;-85
2022/03/20 13:05:38;;;;;;;29.30;19.38;;;11.20;65.80;;;;;;6252242;22;20094;-93
2022/03/20 13:08:06;;;;;;;28.90;20.08;;;11.30;66.40;;;;;;6230868;22;20016;-89
2022/03/20 13:10:37;;;;;;;26.13;18.67;;;11.40;65.90;;;;;;6256047;22;20016;-91
2022/03/20 13:13:03;;;;;;;26.30;18.65;;;11.40;65.10;;;;;;6253678;22;20379;-93
2022/03/20 13:15:34;;;;;;;26.23;18.33;;;11.40;65.90;;;;;;6253854;22;20020;-91
2022/03/20 13:18:01;;;;;;;25.98;19.30;;;11.40;65.70;;;;;;6250715;22;20098;-90
2022/03/20 13:20:28;;;;;;;;;;;11.40;65.50;;;;;;6278184;22;20015;-90
2022/03/20 13:22:55;;;;;;;25.38;19.17;;;11.50;66.20;;;;;;6249009;22;19915;-93
2022/03/20 13:25:25;;;;;;;25.27;18.42;;;11.50;65.50;;;;;;6225599;22;20022;-91
2022/03/20 13:27:52;;;;;;;29.08;19.58;;;11.50;66.00;;;;;;6225077;22;20062;-90
2022/03/20 13:30:21;;;;;;;28.95;18.75;;;11.60;66.50;;;;;;6224882;22;20007;-94
2022/03/20 13:32:57;;;;;;;25.05;18.35;;;11.50;64.50;;;;;;6225760;22;20019;-91
2022/03/20 13:35:24;;;;;;;29.13;18.42;;;11.40;64.30;;;;;;6230805;22;20121;-92
2022/03/20 13:37:58;;;;;;;24.85;18.52;;;11.20;64.80;;;;;;6250146;22;20461;-89
2022/03/20 13:40:27;;;;;;;28.85;19.42;;;11.10;65.00;;;;;;6250363;22;20019;-91
2022/03/20 13:42:53;;;;;;;31.50;20.25;;;11.00;66.20;;;;;;6275789;22;20089;-92
2022/03/20 13:45:20;;;;;;;26.02;18.45;;;11.00;66.00;;;;;;6280915;22;20019;-93
2022/03/20 13:47:50;;;;;;;29.17;18.08;;;11.10;65.40;;;;;;6282004;22;20011;-93
2022/03/20 13:50:17;;;;;;;26.00;18.92;;;11.10;65.80;;;;;;6281772;22;20015;-93
2022/03/20 13:52:44;;;;;;;26.73;18.73;;;11.30;65.40;;;;;;6256137;22;20011;-94
2022/03/20 13:55:18;;;;;;;28.08;18.98;;;11.40;64.90;;;;;;6257809;22;20437;-94
2022/03/20 13:57:53;;;;;;;27.98;18.75;;;11.50;64.30;;;;;;6258994;22;20011;-95
2022/03/20 14:00:32;;;;;;;25.85;17.92;;;11.50;63.50;;;;;;6259999;22;20055;-94
2022/03/20 14:02:57;;;;;;;25.73;18.95;;;11.50;63.30;;;;;;6257265;22;20479;-96
2022/03/20 14:05:29;;;;;;;25.30;18.27;;;11.50;63.80;;;;;;6255490;22;20012;-93